Terminal Aerodrome Forecast
Issued by NWS

Home | Current Version | Previous Version | Text Only | Print | Product List | Glossary On
Versions: 1 2 3 4 5 6 7 8 9 10 11 12 13 14 15 16 17 18
000
FTUS44 KEPZ 180500
TAFLRU
TAF
KLRU 180522Z 1806/1906 06008KT P6SM VCSH SCT050 BKN090
     FM181000 03007KT P6SM -SHRA SCT015 BKN040
      TEMPO 1813/1817 3SM SHRA BKN015 OVC025
     FM181800 23008KT 5SM -SHRA FEW015 BKN025 BKN040
     FM182200 24010KT P6SM VCSH SCT015 BKN025=

USA.gov is the U.S. government's official web portal to all federal, state and local government web resources and services.